createdAt,value
2022-08-17T00:01:51.560Z,6.30
2022-08-17T00:12:35.091Z,6.45
2022-08-17T00:22:32.279Z,6.10
2022-08-17T00:33:23.069Z,6.95
2022-08-17T00:43:06.100Z,7.45
2022-08-17T00:53:11.176Z,6.90
2022-08-17T01:03:24.087Z,7.40
2022-08-17T01:13:27.138Z,6.97
2022-08-17T01:33:46.844Z,8.15
2022-08-17T01:43:52.693Z,7.10
2022-08-17T01:53:54.166Z,7.45
2022-08-17T02:04:00.818Z,7.82
2022-08-17T02:14:10.127Z,6.75
2022-08-17T02:24:13.341Z,7.03
2022-08-17T02:34:14.681Z,7.03
2022-08-17T02:44:39.894Z,6.65
2022-08-17T02:54:52.571Z,7.45
2022-08-17T03:05:16.217Z,6.72
2022-08-17T03:15:24.232Z,6.75
2022-08-17T03:25:25.530Z,7.88
2022-08-17T03:35:26.884Z,6.75
2022-08-17T03:45:29.735Z,6.97
2022-08-17T04:05:56.205Z,6.90
2022-08-17T04:26:53.379Z,8.02
2022-08-17T04:36:50.651Z,7.63
2022-08-17T04:46:53.209Z,7.25
2022-08-17T05:07:28.332Z,6.93
2022-08-17T05:17:40.540Z,7.40
2022-08-17T05:27:58.065Z,6.93
2022-08-17T05:38:03.363Z,6.50
2022-08-17T05:49:02.638Z,6.07
2022-08-17T06:09:06.446Z,6.90
2022-08-17T06:29:26.544Z,6.25
2022-08-17T06:39:31.387Z,6.20
2022-08-17T06:49:32.821Z,6.28
2022-08-17T07:41:23.320Z,5.20
2022-08-17T10:07:21.936Z,5.15
2022-08-17T10:17:23.221Z,5.15
2022-08-17T10:27:24.566Z,5.70
2022-08-17T10:37:29.141Z,5.45
2022-08-17T10:47:38.244Z,5.75
2022-08-17T10:57:51.959Z,5.60
2022-08-17T11:07:53.354Z,5.45
2022-08-17T11:17:54.702Z,5.30
2022-08-17T11:27:55.983Z,5.97
2022-08-17T11:37:57.248Z,5.38
2022-08-17T11:48:26.068Z,5.28
2022-08-17T11:58:19.922Z,5.30
2022-08-17T12:08:21.359Z,5.35
2022-08-17T12:18:22.751Z,5.22
2022-08-17T12:28:27.303Z,5.60
2022-08-17T12:38:35.331Z,5.20
2022-08-17T12:48:59.036Z,5.32
2022-08-17T12:59:01.462Z,4.90
2022-08-17T13:09:03.804Z,5.68
2022-08-17T13:19:08.388Z,5.43
2022-08-17T13:29:16.272Z,5.65
2022-08-17T13:39:27.507Z,5.78
2022-08-17T13:49:48.425Z,5.70
2022-08-17T13:59:53.900Z,5.22
2022-08-17T14:09:56.741Z,5.05
2022-08-17T14:19:58.025Z,5.40
2022-08-17T14:30:06.267Z,4.53
2022-08-17T14:40:14.360Z,4.65
2022-08-17T14:50:22.340Z,5.30
2022-08-17T15:00:30.560Z,4.70
2022-08-17T15:10:39.325Z,5.50
2022-08-17T15:20:47.320Z,5.70
2022-08-17T15:30:55.297Z,7.70
2022-08-17T15:41:04.291Z,8.95
2022-08-17T15:51:12.314Z,12.00
2022-08-17T16:01:44.597Z,15.75
2022-08-17T16:11:41.506Z,9.88
2022-08-17T16:21:43.382Z,11.18
2022-08-17T16:31:44.777Z,10.63
2022-08-17T16:41:53.315Z,11.88
2022-08-17T16:51:58.635Z,13.13
2022-08-17T17:02:06.001Z,11.73
2022-08-17T17:12:19.252Z,10.25
2022-08-17T17:22:39.572Z,12.55
2022-08-17T17:32:40.830Z,10.93
2022-08-17T17:42:43.325Z,9.27
2022-08-17T17:52:55.671Z,11.20
2022-08-17T18:02:59.409Z,15.75
2022-08-17T18:13:08.347Z,16.73
2022-08-17T18:23:18.478Z,17.90
2022-08-17T18:33:26.386Z,18.92
2022-08-17T18:43:27.721Z,18.27
2022-08-17T18:53:37.901Z,15.27
2022-08-17T19:03:39.156Z,17.63
2022-08-17T19:13:40.524Z,16.92
2022-08-17T19:23:41.870Z,19.65
2022-08-17T19:33:55.654Z,15.40
2022-08-17T19:43:59.686Z,10.30
2022-08-17T19:54:06.061Z,8.02
2022-08-17T20:04:08.198Z,7.47
2022-08-17T20:14:09.464Z,6.90
2022-08-17T20:24:10.836Z,6.88
2022-08-17T20:34:12.118Z,6.25
2022-08-17T20:44:13.515Z,5.65
2022-08-17T20:54:14.758Z,6.15
2022-08-17T21:04:16.043Z,5.88
2022-08-17T21:14:17.464Z,6.13
2022-08-17T21:24:18.808Z,5.78
2022-08-17T21:34:20.104Z,5.60
2022-08-17T21:44:21.370Z,5.95
2022-08-17T21:54:22.632Z,6.53
2022-08-17T22:04:23.907Z,6.57
2022-08-17T22:14:25.152Z,5.75
2022-08-17T22:24:26.435Z,6.25
2022-08-17T22:34:27.745Z,6.00
2022-08-17T22:44:28.999Z,5.85
2022-08-17T22:54:30.291Z,5.55
2022-08-17T23:04:36.104Z,5.63
2022-08-17T23:14:37.376Z,5.90
2022-08-17T23:24:38.636Z,5.65
2022-08-17T23:34:39.960Z,6.15
2022-08-17T23:44:44.219Z,5.60
2022-08-17T23:54:45.490Z,5.45
